Time;durP1;ratioP1;P1;durP2;ratioP2;P2;SDS_P1;SDS_P2;PMS_P1;PMS_P2;Temp;Humidity;BMP_temperature;BMP_pressure;BME280_temperature;BME280_humidity;BME280_pressure;Samples;Min_cycle;Max_cycle;Signal;HPM_P1;HPM_P2
2022/03/22 00:02:42;;;;;;;20.10;16.47;;;;;;;8.56;38.77;99439.88;8351835;28;20240;-67
2022/03/22 00:06:45;;;;;;;19.77;16.30;;;;;;;8.52;38.75;99435.63;8352341;28;20262;-66
2022/03/22 00:10:49;;;;;;;18.50;16.13;;;;;;;8.41;38.98;99435.72;8352275;28;20232;-66
2022/03/22 00:14:53;;;;;;;18.63;16.63;;;;;;;8.40;39.23;99437.44;8351933;28;20239;-65
2022/03/22 00:19:16;;;;;;;23.23;17.60;;;;;;;8.35;38.98;99436.63;8351515;28;20231;-65
2022/03/22 00:23:19;;;;;;;21.23;16.57;;;;;;;8.28;39.08;99434.13;8351990;28;20232;-66
2022/03/22 00:27:23;;;;;;;19.80;16.37;;;;;;;8.35;39.03;99434.06;8351958;28;20239;-66
2022/03/22 00:31:27;;;;;;;23.80;17.00;;;;;;;8.24;39.03;99433.31;8351512;28;20521;-65
2022/03/22 00:35:35;;;;;;;22.67;16.63;;;;;;;8.16;39.44;99446.31;8351505;28;20232;-65
2022/03/22 00:39:38;;;;;;;22.90;16.87;;;;;;;8.23;39.19;99447.09;8351591;28;20526;-65
2022/03/22 00:43:41;;;;;;;24.37;17.30;;;;;;;8.23;39.31;99452.28;8351443;28;20228;-65
2022/03/22 00:47:48;;;;;;;19.70;16.53;;;;;;;7.99;39.41;99449.06;8351263;28;20243;-65
2022/03/22 00:51:51;;;;;;;22.00;17.07;;;;;;;7.98;39.28;99444.78;8350942;28;20236;-65
2022/03/22 00:55:54;;;;;;;20.90;16.90;;;;;;;7.91;39.95;99443.13;8351007;28;20243;-65
2022/03/22 01:00:04;;;;;;;19.73;16.63;;;;;;;7.89;39.65;99447.47;8349464;28;20248;-65
2022/03/22 01:04:09;;;;;;;21.27;17.07;;;;;;;7.87;39.77;99438.88;8350773;28;20331;-65
2022/03/22 01:08:14;;;;;;;18.67;15.93;;;;;;;7.77;39.77;99448.44;8350067;28;20319;-66
2022/03/22 01:12:17;;;;;;;21.07;16.63;;;;;;;7.71;40.12;99440.75;8350674;28;20247;-65
2022/03/22 01:16:23;;;;;;;18.53;15.90;;;;;;;7.75;39.73;99441.56;8350406;28;20575;-65
2022/03/22 01:20:27;;;;;;;18.37;16.07;;;;;;;7.71;40.03;99445.03;8350279;28;20236;-65
2022/03/22 01:24:30;;;;;;;20.43;15.43;;;;;;;7.72;39.84;99446.78;8350256;28;20440;-65
2022/03/22 01:28:34;;;;;;;19.10;16.00;;;;;;;7.69;39.87;99437.34;8349992;28;20569;-65
2022/03/22 01:32:38;;;;;;;20.63;16.63;;;;;;;7.55;40.17;99436.59;8350037;28;20244;-65
2022/03/22 01:36:42;;;;;;;21.07;17.73;;;;;;;7.49;40.32;99437.50;8349622;28;20236;-65
2022/03/22 01:40:45;;;;;;;19.20;16.93;;;;;;;7.50;40.23;99434.06;8349390;28;20240;-65
2022/03/22 01:44:49;;;;;;;19.87;17.50;;;;;;;7.48;40.41;99429.78;8351301;28;20528;-65
2022/03/22 01:48:52;;;;;;;20.17;16.97;;;;;;;7.41;40.67;99426.41;8351331;28;20204;-65
2022/03/22 01:52:58;;;;;;;21.17;16.57;;;;;;;7.37;40.41;99423.00;8351296;28;20208;-65
2022/03/22 01:57:01;;;;;;;18.77;16.77;;;;;;;7.48;40.44;99420.31;8351158;28;20195;-65
2022/03/22 02:09:47;;;;;;;20.67;15.43;;;;;;;7.40;40.41;99412.66;8348366;28;20231;-65
2022/03/22 02:13:50;;;;;;;18.70;15.87;;;;;;;7.21;40.67;99411.09;8348248;28;20236;-65
2022/03/22 02:17:54;;;;;;;20.20;16.10;;;;;;;7.23;40.57;99410.25;8348366;28;20533;-65
2022/03/22 02:22:01;;;;;;;18.50;16.13;;;;;;;7.14;40.44;99406.84;8348178;28;20236;-65
2022/03/22 02:26:06;;;;;;;18.20;15.73;;;;;;;7.14;40.51;99407.72;8348235;28;20237;-65
2022/03/22 02:30:11;;;;;;;19.43;16.70;;;;;;;7.02;40.66;99410.38;8347575;28;20236;-65
2022/03/22 02:34:14;;;;;;;18.30;15.63;;;;;;;7.01;40.92;99412.09;8348031;28;20239;-66
2022/03/22 02:38:17;;;;;;;17.63;15.43;;;;;;;7.07;40.57;99406.06;8347857;28;20534;-65
2022/03/22 02:42:22;;;;;;;18.10;15.20;;;;;;;6.88;40.50;99407.91;8347181;28;20424;-65
2022/03/22 02:46:25;;;;;;;18.47;16.47;;;;;;;6.91;40.88;99397.59;8347626;28;20276;-65
2022/03/22 02:50:28;;;;;;;19.07;16.53;;;;;;;6.81;40.89;99396.75;8347631;28;20240;-65
2022/03/22 02:54:32;;;;;;;21.97;15.93;;;;;;;6.84;40.98;99399.34;8347580;28;20232;-65
2022/03/22 02:58:36;;;;;;;23.63;16.10;;;;;;;6.83;41.05;99401.91;8347353;28;20231;-65
2022/03/22 03:02:43;;;;;;;19.77;15.20;;;;;;;6.72;40.97;99398.53;8347135;28;20240;-65
2022/03/22 03:06:46;;;;;;;18.67;16.67;;;;;;;6.79;41.00;99401.06;8346945;28;20247;-65
2022/03/22 03:10:49;;;;;;;21.10;16.47;;;;;;;6.71;40.88;99395.13;8347212;28;20236;-65
2022/03/22 03:14:53;;;;;;;18.50;15.97;;;;;;;6.73;40.88;99398.53;8347274;28;20426;-65
2022/03/22 03:18:56;;;;;;;19.93;16.20;;;;;;;6.70;41.11;99393.44;8347063;28;20546;-65
2022/03/22 03:22:59;;;;;;;21.13;15.93;;;;;;;6.74;41.10;99397.69;8350061;28;20307;-65
2022/03/22 03:27:02;;;;;;;20.07;16.60;;;;;;;6.77;41.03;99396.81;8353770;28;20243;-65
2022/03/22 03:31:07;;;;;;;23.53;16.33;;;;;;;6.67;41.18;99398.59;8353602;28;20240;-65
2022/03/22 03:35:10;;;;;;;18.17;16.00;;;;;;;6.67;40.99;99400.31;8353144;28;20227;-65
2022/03/22 03:39:13;;;;;;;21.20;16.83;;;;;;;6.54;41.30;99399.50;8353250;28;20437;-65
2022/03/22 03:43:16;;;;;;;18.03;15.57;;;;;;;6.50;41.33;99408.13;8353083;28;20299;-65
2022/03/22 03:47:22;;;;;;;24.20;16.30;;;;;;;6.51;41.49;99404.66;8353159;28;20239;-65
2022/03/22 03:51:26;;;;;;;19.03;16.30;;;;;;;6.45;41.39;99402.97;8353048;28;20248;-65
2022/03/22 03:55:30;;;;;;;20.80;16.47;;;;;;;6.36;41.46;99403.91;8352868;28;20431;-65
2022/03/22 03:59:33;;;;;;;18.90;15.93;;;;;;;6.39;41.36;99403.84;8352878;28;20550;-65
2022/03/22 04:03:38;;;;;;;19.90;15.17;;;;;;;6.46;41.04;99412.41;8352504;28;20389;-66
2022/03/22 04:07:41;;;;;;;18.40;14.90;;;;;;;6.34;41.48;99415.91;8352345;28;20243;-65
2022/03/22 04:11:44;;;;;;;20.13;15.47;;;;;;;6.40;41.26;99415.88;8352418;28;20430;-65
2022/03/22 04:15:47;;;;;;;19.17;14.70;;;;;;;6.35;41.36;99412.47;8352006;28;20236;-65
2022/03/22 04:19:53;;;;;;;18.47;15.00;;;;;;;6.38;41.21;99424.47;8352219;28;20561;-65
2022/03/22 04:23:56;;;;;;;20.27;15.40;;;;;;;6.45;41.29;99418.41;8352150;28;20240;-64
2022/03/22 04:36:41;;;;;;;18.53;15.47;;;;;;;6.29;41.29;99420.22;8351732;28;20560;-65
2022/03/22 04:40:45;;;;;;;19.57;14.87;;;;;;;6.28;41.42;99422.78;8351372;28;20549;-65
2022/03/22 04:44:52;;;;;;;17.70;15.07;;;;;;;6.15;41.08;99427.97;8351330;28;20346;-65
2022/03/22 04:48:55;;;;;;;16.67;14.97;;;;;;;6.10;41.65;99426.28;8350942;28;20232;-65
2022/03/22 04:57:20;;;;;;;17.40;14.57;;;;;;;6.12;41.46;99434.84;8350740;28;20522;-65
2022/03/22 05:01:23;;;;;;;17.80;14.97;;;;;;;6.07;41.36;99432.28;8350574;28;20244;-65
2022/03/22 05:09:45;;;;;;;16.90;15.10;;;;;;;6.05;41.58;99429.72;8349711;28;20430;-65
2022/03/22 05:13:48;;;;;;;19.73;15.70;;;;;;;6.09;41.80;99432.28;8350570;28;20236;-65
2022/03/22 05:17:51;;;;;;;21.17;15.13;;;;;;;6.14;41.78;99440.84;8350159;28;20242;-65
2022/03/22 05:21:55;;;;;;;18.40;15.10;;;;;;;5.97;41.74;99438.31;8350171;28;20236;-65
2022/03/22 05:25:59;;;;;;;18.00;14.13;;;;;;;6.18;41.34;99445.97;8350086;28;20258;-65
2022/03/22 05:30:02;;;;;;;20.43;15.00;;;;;;;6.32;41.07;99442.50;8349952;28;20236;-64
2022/03/22 05:34:05;;;;;;;17.97;14.77;;;;;;;6.69;39.97;99440.63;8349716;28;20236;-65
2022/03/22 05:38:08;;;;;;;16.93;14.77;;;;;;;7.09;39.60;99440.38;8349700;28;20236;-65
2022/03/22 05:42:14;;;;;;;18.57;15.10;;;;;;;7.52;38.57;99445.22;8349191;28;20232;-64
2022/03/22 05:46:18;;;;;;;16.27;14.57;;;;;;;7.74;38.08;99448.44;8348939;28;20426;-65
2022/03/22 05:50:21;;;;;;;15.97;14.27;;;;;;;7.98;37.84;99443.94;8349313;28;20236;-65
2022/03/22 05:54:25;;;;;;;16.37;14.27;;;;;;;8.26;37.50;99447.06;8349160;28;20248;-65
2022/03/22 05:58:30;;;;;;;18.47;15.67;;;;;;;8.45;36.56;99445.16;8349018;28;20239;-64
2022/03/22 06:02:33;;;;;;;19.37;13.97;;;;;;;8.58;36.45;99446.69;8348765;28;20251;-65
2022/03/22 06:06:36;;;;;;;19.77;14.40;;;;;;;8.84;35.89;99444.69;8331153;28;20241;-66
2022/03/22 06:10:39;;;;;;;27.30;14.37;;;;;;;9.07;35.58;99452.09;8315873;28;20236;-64
2022/03/22 06:14:43;;;;;;;19.43;13.47;;;;;;;9.15;35.34;99453.69;8315772;28;20236;-67
2022/03/22 06:18:46;;;;;;;26.43;14.00;;;;;;;9.47;34.90;99459.25;8315406;28;20232;-65
2022/03/22 06:22:49;;;;;;;21.00;14.07;;;;;;;9.62;34.67;99459.00;8315357;28;20240;-66
2022/03/22 06:26:53;;;;;;;20.73;13.40;;;;;;;9.68;34.50;99458.03;8315293;28;20239;-65
2022/03/22 06:30:57;;;;;;;16.67;13.40;;;;;;;9.93;34.13;99459.31;8315205;28;20237;-65
2022/03/22 06:35:00;;;;;;;23.60;13.63;;;;;;;9.95;34.15;99469.63;8315040;28;20247;-64
2022/03/22 06:39:03;;;;;;;18.40;13.37;;;;;;;10.25;33.98;99470.81;8314935;28;20237;-65
2022/03/22 06:43:14;;;;;;;15.07;12.63;;;;;;;10.75;33.09;99478.47;8314917;28;20229;-65
2022/03/22 06:47:18;;;;;;;17.93;13.20;;;;;;;10.92;32.91;99481.56;8314511;28;20331;-65
2022/03/22 06:51:22;;;;;;;16.80;12.23;;;;;;;11.20;32.10;99480.97;8314958;28;20232;-65
2022/03/22 06:55:25;;;;;;;16.83;12.53;;;;;;;11.41;31.70;99487.41;8314537;28;20252;-65
2022/03/22 06:59:32;;;;;;;16.53;12.43;;;;;;;11.57;31.64;99497.41;8314035;28;20298;-65
2022/03/22 07:03:36;;;;;;;17.03;12.47;;;;;;;11.81;31.06;99499.41;8331481;28;20247;-65
2022/03/22 07:07:40;;;;;;;19.83;12.97;;;;;;;11.97;30.89;99496.44;8346893;28;20240;-65
2022/03/22 07:11:50;;;;;;;17.87;12.40;;;;;;;12.13;30.66;99505.56;8347216;28;20235;-65
2022/03/22 07:15:53;;;;;;;23.77;13.23;;;;;;;12.18;29.97;99506.28;8347269;28;20672;-65
2022/03/22 07:19:58;;;;;;;19.23;12.60;;;;;;;12.31;29.47;99496.41;8347082;28;20450;-65
2022/03/22 07:24:01;;;;;;;19.33;12.33;;;;;;;12.39;29.67;99499.66;8346937;28;20244;-65
2022/03/22 07:28:05;;;;;;;21.53;12.53;;;;;;;12.89;29.33;99499.97;8346402;28;20235;-65
2022/03/22 07:32:08;;;;;;;16.63;12.07;;;;;;;12.99;28.66;99492.75;8346578;28;20238;-65
2022/03/22 07:36:22;;;;;;;19.53;11.60;;;;;;;13.36;27.91;99501.22;8346585;28;20236;-65
2022/03/22 07:40:45;;;;;;;16.00;11.77;;;;;;;13.45;26.19;99499.16;8346546;28;20239;-65
2022/03/22 07:44:48;;;;;;;14.17;10.50;;;;;;;12.86;26.38;99502.66;8346651;28;20243;-65
2022/03/22 07:48:51;;;;;;;13.43;10.60;;;;;;;12.92;26.27;99499.03;8346612;28;20239;-65
2022/03/22 07:53:01;;;;;;;13.83;11.17;;;;;;;13.74;25.67;99504.34;8346685;28;20419;-65
2022/03/22 07:57:07;;;;;;;15.40;10.63;;;;;;;14.02;25.43;99506.88;8346720;28;20228;-65
2022/03/22 08:01:10;;;;;;;20.87;14.20;;;;;;;13.99;25.12;99504.38;8346172;28;20553;-67
2022/03/22 08:05:13;;;;;;;12.30;10.40;;;;;;;14.41;23.94;99509.00;8345702;28;20260;-66
2022/03/22 08:09:18;;;;;;;16.37;10.50;;;;;;;14.28;24.37;99503.38;8349900;28;20238;-65
2022/03/22 08:13:21;;;;;;;17.03;10.77;;;;;;;15.13;23.87;99505.53;8352306;28;20232;-66
2022/03/22 08:17:25;;;;;;;14.23;10.40;;;;;;;15.42;23.61;99500.03;8352221;28;20246;-66
2022/03/22 08:21:28;;;;;;;13.67;9.73;;;;;;;15.26;22.49;99501.53;8352012;28;20299;-66
2022/03/22 08:25:34;;;;;;;14.63;9.83;;;;;;;15.61;21.69;99507.09;8351802;28;20417;-65
2022/03/22 08:29:37;;;;;;;14.27;8.93;;;;;;;15.69;21.26;99499.81;8351787;28;20327;-67
2022/03/22 08:33:41;;;;;;;12.10;8.57;;;;;;;16.14;20.37;99495.38;8351525;28;20243;-66
2022/03/22 08:37:43;;;;;;;10.40;8.40;;;;;;;15.93;19.87;99495.34;8351401;28;20561;-66
2022/03/22 08:41:48;;;;;;;12.37;9.03;;;;;;;15.98;20.17;99489.94;8351407;28;20236;-66
2022/03/22 08:45:51;;;;;;;9.80;8.50;;;;;;;15.63;19.72;99492.22;8327582;28;20244;-60
2022/03/22 08:49:54;;;;;;;12.50;8.33;;;;;;;16.10;20.10;99496.41;8325552;28;20243;-60
2022/03/22 08:53:57;;;;;;;10.93;8.33;;;;;;;15.63;19.97;99489.59;8351137;28;20236;-61
2022/03/22 08:58:05;;;;;;;10.17;7.90;;;;;;;15.86;19.06;99493.94;8351007;28;20235;-60
2022/03/22 09:02:09;;;;;;;10.87;7.93;;;;;;;16.51;19.76;99493.78;8350879;28;20263;-60
2022/03/22 09:06:14;;;;;;;10.37;7.57;;;;;;;16.85;18.92;99484.41;8349987;28;20302;-60
2022/03/22 09:10:18;;;;;;;11.27;8.33;;;;;;;17.43;18.54;99476.44;8343054;28;20232;-60
2022/03/22 09:14:22;;;;;;;11.17;8.27;;;;;;;17.79;18.22;99480.78;8317783;28;20237;-61
2022/03/22 09:18:26;;;;;;;9.77;7.70;;;;;;;17.46;18.41;99478.06;8317488;28;20270;-60
2022/03/22 09:22:29;;;;;;;9.93;8.40;;;;;;;18.31;18.02;99477.31;8316414;28;20292;-60
2022/03/22 09:26:32;;;;;;;10.93;8.27;;;;;;;18.89;17.24;99473.41;8317177;28;20551;-60
2022/03/22 09:30:38;;;;;;;8.80;7.80;;;;;;;19.11;17.07;99465.16;8317048;28;20232;-61
2022/03/22 09:34:41;;;;;;;9.67;8.00;;;;;;;19.43;17.29;99465.97;8317098;28;20436;-60
2022/03/22 09:38:45;;;;;;;9.83;7.87;;;;;;;18.50;16.69;99475.41;8316762;28;20237;-61
2022/03/22 09:42:48;;;;;;;9.03;7.13;;;;;;;19.19;16.56;99460.38;8316570;28;20243;-60
2022/03/22 09:46:52;;;;;;;11.07;7.50;;;;;;;19.31;16.87;99461.44;8316654;28;20255;-60
2022/03/22 09:55:20;;;;;;;11.70;7.60;;;;;;;19.83;16.32;99457.63;8316168;28;20232;-60
2022/03/22 09:59:23;;;;;;;11.67;7.67;;;;;;;19.49;15.89;99451.66;8316151;28;20245;-60
2022/03/22 10:03:28;;;;;;;14.30;7.57;;;;;;;19.86;16.10;99449.56;8332058;28;20247;-60
2022/03/22 10:07:31;;;;;;;10.93;7.10;;;;;;;20.29;15.69;99450.44;8328107;28;20300;-61
2022/03/22 10:11:36;;;;;;;11.57;7.57;;;;;;;19.57;15.63;99445.94;8315842;28;20237;-61
2022/03/22 10:15:39;;;;;;;11.23;7.07;;;;;;;20.45;22.75;99439.00;8315895;28;20236;-60
2022/03/22 10:19:45;;;;;;;10.20;7.30;;;;;;;20.92;16.49;99429.91;8315455;28;20573;-61
2022/03/22 10:23:52;;;;;;;8.23;6.93;;;;;;;21.06;15.84;99424.63;8315361;28;20238;-61
2022/03/22 10:27:56;;;;;;;11.03;6.80;;;;;;;19.77;14.60;99429.91;8315274;28;20551;-60
2022/03/22 10:32:05;;;;;;;9.67;6.67;;;;;;;20.86;16.09;99417.16;8315063;28;20335;-60
2022/03/22 10:36:13;;;;;;;9.13;6.27;;;;;;;20.89;14.15;99411.69;8315234;28;20236;-60
2022/03/22 10:40:21;;;;;;;8.97;6.10;;;;;;;21.32;14.40;99414.16;8314896;28;20230;-61
2022/03/22 10:44:25;;;;;;;9.23;6.30;;;;;;;20.74;13.93;99410.03;8315000;28;20275;-61
2022/03/22 10:48:30;;;;;;;9.63;5.60;;;;;;;21.12;14.00;99409.38;8315042;28;20238;-60
2022/03/22 10:52:36;;;;;;;7.07;6.10;;;;;;;20.92;13.41;99395.69;8314674;28;20422;-61
2022/03/22 10:56:44;;;;;;;8.13;5.37;;;;;;;21.50;27.42;99408.69;8314511;28;20236;-60
2022/03/22 11:00:48;;;;;;;9.03;5.23;;;;;;;21.77;21.77;99405.97;8314724;28;20238;-60
2022/03/22 11:04:53;;;;;;;9.07;5.30;;;;;;;21.80;17.52;99390.78;8336473;28;20233;-60
2022/03/22 11:08:58;;;;;;;10.67;5.60;;;;;;;22.30;16.72;99384.78;8322687;28;20235;-60
2022/03/22 11:13:02;;;;;;;14.03;6.03;;;;;;;22.32;16.96;99385.53;8346535;28;20233;-60
2022/03/22 11:17:07;;;;;;;12.83;6.23;;;;;;;22.38;20.04;99385.91;8328596;28;20234;-60
2022/03/22 11:21:10;;;;;;;10.23;5.40;;;;;;;21.53;19.65;99390.00;8313586;28;20229;-60
2022/03/22 11:25:19;;;;;;;7.57;5.30;;;;;;;21.95;15.98;99380.13;8313868;28;20243;-61
2022/03/22 11:29:24;;;;;;;8.37;5.30;;;;;;;21.78;22.17;99376.88;8314273;28;20562;-60
2022/03/22 11:38:00;;;;;;;8.60;4.80;;;;;;;21.60;20.65;99364.94;8314072;28;20239;-60
2022/03/22 11:42:18;;;;;;;8.93;5.23;;;;;;;21.79;17.08;99359.25;8314077;28;20261;-60
2022/03/22 11:46:31;;;;;;;8.40;5.07;;;;;;;21.71;16.81;99358.94;8320114;28;20304;-60
2022/03/22 11:50:35;;;;;;;7.27;5.13;;;;;;;21.52;18.02;99354.91;8319982;28;20239;-60
2022/03/22 11:54:38;;;;;;;8.80;5.40;;;;;;;21.23;17.69;99347.13;8319331;28;20244;-60
2022/03/22 11:58:50;;;;;;;10.50;5.37;;;;;;;21.64;15.57;99350.59;8320096;28;20234;-60
2022/03/22 12:03:01;;;;;;;11.77;4.73;;;;;;;22.19;18.09;99343.28;8332177;28;20238;-60
2022/03/22 12:07:05;;;;;;;7.73;5.30;;;;;;;22.04;15.07;99334.66;8351684;28;20241;-60
2022/03/22 12:11:13;;;;;;;8.03;4.97;;;;;;;22.29;18.81;99343.50;8352328;28;20232;-59
2022/03/22 12:15:19;;;;;;;9.87;4.80;;;;;;;22.00;18.37;99335.81;8352045;28;20425;-60
2022/03/22 12:19:25;;;;;;;7.20;4.93;;;;;;;22.48;17.92;99338.59;8352220;28;20247;-60
2022/03/22 12:23:28;;;;;;;10.80;5.07;;;;;;;22.61;16.12;99326.19;8351927;28;27531;-60
2022/03/22 12:27:32;;;;;;;9.40;4.70;;;;;;;21.56;19.43;99323.91;8351976;28;20237;-61
2022/03/22 12:31:36;;;;;;;9.20;4.20;;;;;;;22.39;15.09;99321.63;8351897;28;20238;-61
2022/03/22 12:35:40;;;;;;;8.67;4.83;;;;;;;22.33;15.88;99315.94;8351775;28;20302;-60
2022/03/22 12:39:44;;;;;;;10.50;4.90;;;;;;;22.19;16.25;99309.81;8338638;28;20314;-60
2022/03/22 12:44:00;;;;;;;8.57;4.60;;;;;;;22.70;15.21;99302.75;8334141;28;20426;-56
2022/03/22 12:48:05;;;;;;;5.80;4.60;;;;;;;22.83;13.23;99304.34;8333792;28;20587;-57
2022/03/22 12:52:10;;;;;;;7.53;4.40;;;;;;;22.84;15.82;99302.53;8334109;28;20228;-56
2022/03/22 12:56:14;;;;;;;7.20;3.93;;;;;;;22.58;16.48;99301.81;8332138;28;20517;-57
2022/03/22 13:00:28;;;;;;;6.70;3.87;;;;;;;22.18;17.05;99289.69;8333615;28;20237;-56
2022/03/22 13:04:36;;;;;;;7.40;4.20;;;;;;;22.43;15.83;99294.06;8334840;28;20586;-57
2022/03/22 13:13:00;;;;;;;4.10;3.70;;;;;;;21.93;15.16;99274.72;8350312;28;20579;-56
2022/03/22 13:17:04;;;;;;;7.23;3.97;;;;;;;22.19;16.46;99270.25;8350288;28;20244;-56
2022/03/22 13:21:09;;;;;;;6.17;4.00;;;;;;;22.28;15.71;99267.94;8350297;28;20237;-56
2022/03/22 13:25:13;;;;;;;4.03;3.63;;;;;;;22.10;13.22;99267.44;8349668;28;20261;-57
2022/03/22 13:29:18;;;;;;;6.03;3.63;;;;;;;22.18;13.59;99265.94;8350062;28;20426;-57
2022/03/22 13:33:22;;;;;;;5.33;4.00;;;;;;;22.28;15.58;99265.31;8349900;28;20456;-57
2022/03/22 13:37:27;;;;;;;6.63;3.40;;;;;;;22.18;14.16;99257.16;8349664;28;20435;-56
2022/03/22 13:41:30;;;;;;;8.60;3.77;;;;;;;22.33;11.83;99255.25;8349573;28;20248;-56
2022/03/22 13:45:34;;;;;;;4.80;3.80;;;;;;;22.12;14.01;99250.53;8349466;28;20240;-57
2022/03/22 13:49:38;;;;;;;8.33;4.13;;;;;;;21.96;13.85;99247.31;8349332;28;20237;-57
2022/03/22 13:53:45;;;;;;;6.43;3.80;;;;;;;22.12;17.51;99245.25;8349090;28;20233;-56
2022/03/22 13:57:49;;;;;;;4.30;3.47;;;;;;;21.89;15.19;99244.25;8349077;28;20240;-56
2022/03/22 14:02:10;;;;;;;5.73;3.93;;;;;;;21.79;13.15;99251.16;8348436;28;20225;-56
2022/03/22 14:06:13;;;;;;;7.27;4.37;;;;;;;22.11;11.79;99238.31;8348064;28;20249;-57
2022/03/22 14:10:28;;;;;;;5.60;4.13;;;;;;;22.53;12.64;99241.44;8348793;28;20243;-56
2022/03/22 14:14:31;;;;;;;5.37;3.83;;;;;;;22.04;13.49;99240.53;8348480;28;20345;-57
2022/03/22 14:18:35;;;;;;;5.07;3.50;;;;;;;22.22;15.32;99241.00;8348266;28;20240;-56
2022/03/22 14:22:37;;;;;;;4.80;3.70;;;;;;;22.48;16.61;99243.56;8348262;28;20536;-57
2022/03/22 14:26:42;;;;;;;6.43;3.30;;;;;;;22.60;13.65;99232.13;8348279;28;20540;-56
2022/03/22 14:30:45;;;;;;;7.80;4.40;;;;;;;22.29;12.45;99222.13;8348225;28;20239;-56
2022/03/22 14:39:08;;;;;;;8.07;4.33;;;;;;;21.32;10.47;99228.91;8347780;28;20234;-57
2022/03/22 14:43:13;;;;;;;5.07;3.97;;;;;;;21.49;10.37;99223.34;8347334;28;20254;-58
2022/03/22 14:47:16;;;;;;;6.47;4.00;;;;;;;21.06;10.53;99224.47;8347663;28;20238;-58
2022/03/22 14:54:02;;;;;;;5.30;4.43;;;;;;;21.58;10.39;99216.59;8347460;28;20237;-58
2022/03/22 14:55:47;;;;;;;4.30;3.90;;;;;;;21.18;10.99;99214.03;8347296;28;20239;-57
2022/03/22 14:59:54;;;;;;;10.77;4.97;;;;;;;20.85;10.92;99210.94;8347338;28;20423;-58
2022/03/22 15:04:00;;;;;;;6.63;4.50;;;;;;;20.98;10.76;99197.81;8347221;28;20229;-57
2022/03/22 15:08:05;;;;;;;5.00;4.00;;;;;;;21.50;11.56;99196.03;8346838;28;20239;-57
2022/03/22 15:12:12;;;;;;;4.87;4.37;;;;;;;21.53;11.52;99193.16;8347238;28;20243;-57
2022/03/22 15:16:16;;;;;;;6.07;4.40;;;;;;;20.56;10.95;99190.94;8346679;28;20259;-58
2022/03/22 15:20:20;;;;;;;5.27;4.40;;;;;;;20.38;10.93;99191.22;8346310;28;20232;-57
2022/03/22 15:24:23;;;;;;;4.77;3.80;;;;;;;20.82;10.88;99184.81;8346900;28;20243;-57
2022/03/22 15:28:26;;;;;;;6.03;3.97;;;;;;;20.83;10.61;99181.25;8346786;28;20252;-57
2022/03/22 15:32:31;;;;;;;6.67;4.23;;;;;;;20.44;10.51;99175.03;8346868;28;20294;-57
2022/03/22 15:36:34;;;;;;;4.97;4.03;;;;;;;20.90;11.64;99171.13;8346636;28;20236;-57
2022/03/22 15:40:37;;;;;;;7.33;4.30;;;;;;;20.91;11.49;99179.91;8346437;28;20239;-58
2022/03/22 15:44:40;;;;;;;4.87;4.27;;;;;;;20.33;11.44;99168.78;8346586;28;20265;-57
2022/03/22 15:48:44;;;;;;;6.33;4.77;;;;;;;20.69;12.39;99170.81;8346506;28;20427;-58
2022/03/22 15:52:48;;;;;;;10.70;4.57;;;;;;;20.74;12.69;99173.13;8345644;28;20334;-57
2022/03/22 15:56:50;;;;;;;6.43;4.23;;;;;;;20.34;12.11;99165.22;8346295;28;20236;-57
2022/03/22 16:00:53;;;;;;;5.00;4.20;;;;;;;20.32;12.90;99162.69;8346325;28;20243;-57
2022/03/22 16:04:58;;;;;;;10.67;4.57;;;;;;;19.75;12.80;99160.25;8345920;28;20236;-57
2022/03/22 16:09:01;;;;;;;6.57;4.70;;;;;;;19.75;12.33;99161.06;8345938;28;20240;-57
2022/03/22 16:13:05;;;;;;;8.17;5.00;;;;;;;19.64;12.65;99160.88;8346048;28;20243;-57
2022/03/22 16:17:08;;;;;;;5.80;4.83;;;;;;;19.28;13.08;99160.41;8339966;28;20243;-57
2022/03/22 16:21:12;;;;;;;6.63;4.30;;;;;;;19.33;13.31;99163.63;8312683;28;20238;-58
2022/03/22 16:25:17;;;;;;;7.30;4.23;;;;;;;19.31;13.56;99156.78;8312846;28;20240;-58
2022/03/22 16:29:20;;;;;;;4.57;4.13;;;;;;;18.85;13.23;99157.78;8314997;28;20237;-58
2022/03/22 16:37:46;;;;;;;8.20;4.20;;;;;;;18.49;13.38;99158.13;8318694;28;20244;-58
2022/03/22 16:41:54;;;;;;;5.70;4.43;;;;;;;18.50;13.11;99165.06;8318369;28;20263;-58
2022/03/22 16:45:59;;;;;;;7.90;4.57;;;;;;;18.49;13.36;99158.13;8318453;28;20240;-58
2022/03/22 16:50:04;;;;;;;7.03;4.30;;;;;;;18.54;14.30;99161.31;8318281;28;20700;-57
2022/03/22 16:54:11;;;;;;;5.30;4.37;;;;;;;18.27;13.90;99155.88;8326122;28;20235;-59
2022/03/22 16:58:14;;;;;;;7.27;4.17;;;;;;;18.17;13.70;99158.19;8333815;28;20228;-58
2022/03/22 17:02:17;;;;;;;4.37;3.83;;;;;;;18.12;14.13;99161.06;8333905;28;20298;-58
2022/03/22 17:06:21;;;;;;;6.53;3.70;;;;;;;18.03;14.08;99158.09;8350206;28;20232;-57
2022/03/22 17:10:27;;;;;;;8.33;4.10;;;;;;;17.93;14.23;99163.91;8350278;28;20239;-57
2022/03/22 17:14:34;;;;;;;7.43;4.00;;;;;;;17.91;14.55;99154.41;8350423;28;20243;-57
2022/03/22 17:18:39;;;;;;;6.13;3.67;;;;;;;17.84;14.79;99159.16;8350178;28;20247;-58
2022/03/22 17:22:44;;;;;;;22.27;4.40;;;;;;;17.83;15.59;99165.28;8350138;28;20542;-58
2022/03/22 17:26:49;;;;;;;10.37;4.40;;;;;;;17.64;14.90;99161.97;8349924;28;20244;-57
2022/03/22 17:30:52;;;;;;;9.10;4.00;;;;;;;17.54;15.34;99162.47;8349934;28;20232;-57
2022/03/22 17:35:07;;;;;;;4.40;4.00;;;;;;;17.61;16.10;99162.13;8349709;28;20594;-56
2022/03/22 17:39:10;;;;;;;8.50;5.50;;;;;;;17.50;16.07;99163.56;8349257;28;20234;-57
2022/03/22 17:43:14;;;;;;;5.63;4.40;;;;;;;17.44;16.66;99158.66;8347729;28;20248;-58
2022/03/22 17:47:17;;;;;;;11.47;4.33;;;;;;;17.32;17.34;99165.38;8337790;28;20237;-57
2022/03/22 17:51:20;;;;;;;9.30;4.57;;;;;;;17.27;17.82;99174.41;8332072;28;20236;-58
2022/03/22 17:55:23;;;;;;;8.37;4.70;;;;;;;17.16;18.25;99177.59;8333285;28;20242;-56
2022/03/22 17:59:28;;;;;;;8.90;5.10;;;;;;;17.05;18.81;99170.31;8331084;28;20235;-56
2022/03/22 18:03:32;;;;;;;6.67;4.50;;;;;;;16.87;19.83;99172.09;8334089;28;20232;-56
2022/03/22 18:07:35;;;;;;;10.33;4.57;;;;;;;16.79;19.99;99176.81;8329367;28;20350;-56
2022/03/22 18:11:45;;;;;;;8.50;4.20;;;;;;;16.66;20.96;99174.00;8330449;28;20237;-56
2022/03/22 18:15:50;;;;;;;8.40;4.23;;;;;;;16.55;19.88;99186.75;8318960;28;20521;-56
2022/03/22 18:19:53;;;;;;;9.17;6.17;;;;;;;16.38;20.94;99187.59;8339608;28;20254;-56
2022/03/22 18:23:56;;;;;;;20.23;10.93;;;;;;;16.27;21.57;99190.72;8348377;28;20256;-56
2022/03/22 18:27:59;;;;;;;20.50;11.40;;;;;;;16.11;21.81;99193.22;8347910;28;20247;-56
2022/03/22 18:32:04;;;;;;;16.77;10.10;;;;;;;15.96;21.65;99192.19;8340212;28;20243;-56
2022/03/22 18:36:07;;;;;;;11.43;6.70;;;;;;;15.88;22.17;99194.31;8347949;28;20235;-56
2022/03/22 18:40:11;;;;;;;12.07;7.10;;;;;;;15.76;22.30;99184.41;8347555;28;20228;-56
2022/03/22 18:44:15;;;;;;;8.73;6.57;;;;;;;15.63;22.27;99191.91;8347570;28;20238;-56
2022/03/22 18:48:19;;;;;;;10.03;5.87;;;;;;;15.49;23.23;99202.16;8346676;28;20236;-56
2022/03/22 18:52:22;;;;;;;11.63;7.90;;;;;;;15.32;22.37;99208.13;8347331;28;20232;-56
2022/03/22 18:56:45;;;;;;;14.23;7.07;;;;;;;15.23;21.76;99205.00;8346882;28;20542;-56
2022/03/22 19:00:48;;;;;;;24.83;12.00;;;;;;;15.10;22.11;99209.06;8347391;28;20487;-56
2022/03/22 19:04:52;;;;;;;28.47;19.90;;;;;;;15.07;23.07;99214.41;8347258;28;20260;-56
2022/03/22 19:08:55;;;;;;;23.37;13.47;;;;;;;14.86;23.62;99217.00;8347064;28;20240;-56
2022/03/22 19:12:58;;;;;;;18.03;9.00;;;;;;;14.72;23.75;99218.50;8346967;28;20236;-56
2022/03/22 19:21:24;;;;;;;15.97;9.13;;;;;;;14.54;24.53;99225.28;8346547;28;20523;-56
2022/03/22 19:25:29;;;;;;;21.17;10.73;;;;;;;14.51;24.87;99225.38;8346948;28;20444;-56
2022/03/22 19:29:32;;;;;;;19.60;12.13;;;;;;;14.42;25.14;99235.28;8347001;28;20235;-56
2022/03/22 19:33:35;;;;;;;20.13;11.60;;;;;;;14.22;25.79;99230.88;8346885;28;20236;-55
2022/03/22 19:37:40;;;;;;;16.17;7.43;;;;;;;15.75;42.65;99235.81;8345209;28;20247;-55
2022/03/22 19:41:43;;;;;;;20.53;11.80;;;;;;;15.59;25.93;99234.75;8313710;28;20236;-57
2022/03/22 19:45:46;;;;;;;13.97;10.30;;;;;;;14.72;25.40;99235.00;8326317;28;20232;-58
2022/03/22 19:49:51;;;;;;;16.57;10.60;;;;;;;14.37;25.75;99228.56;8346257;28;20311;-57
2022/03/22 19:53:56;;;;;;;14.87;11.67;;;;;;;14.06;26.16;99234.97;8346444;28;20585;-57